createdAt,value
2019-01-10T00:00:50.689Z,102424.53
2019-01-10T00:03:19.449Z,102425.98
2019-01-10T00:05:48.238Z,102431.84
2019-01-10T00:08:17.027Z,102428.17
2019-01-10T00:10:45.920Z,102421.42
2019-01-10T00:13:14.719Z,102424.17
2019-01-10T00:15:43.520Z,102428.17
2019-01-10T00:18:14.867Z,102422.33
2019-01-10T00:20:43.678Z,102419.05
2019-01-10T00:23:12.471Z,102425.80
2019-01-10T00:25:41.259Z,102431.27
2019-01-10T00:28:10.047Z,102424.88
2019-01-10T00:30:38.846Z,102428.91
2019-01-10T00:33:07.727Z,102432.90
2019-01-10T00:35:36.563Z,102434.89
2019-01-10T00:38:05.371Z,102435.09
2019-01-10T00:40:34.255Z,102434.00
2019-01-10T00:43:03.662Z,102438.00
2019-01-10T00:45:32.534Z,102439.63
2019-01-10T00:48:02.050Z,102446.02
2019-01-10T00:50:31.853Z,102441.66
2019-01-10T00:53:00.645Z,102441.81
2019-01-10T00:55:29.755Z,102443.28
2019-01-10T00:57:58.505Z,102445.28
2019-01-10T01:00:27.319Z,102443.08
2019-01-10T01:02:57.745Z,102441.98
2019-01-10T01:05:28.545Z,102451.09
2019-01-10T01:07:57.818Z,102452.35
2019-01-10T01:10:27.454Z,102448.70
2019-01-10T01:12:58.769Z,102455.08
2019-01-10T01:15:25.635Z,102458.53
2019-01-10T01:17:55.622Z,102456.89
2019-01-10T01:20:25.069Z,102459.95
2019-01-10T01:22:54.947Z,102462.89
2019-01-10T01:25:26.565Z,102466.52
2019-01-10T01:27:55.383Z,102468.86
2019-01-10T01:30:26.310Z,102472.16
2019-01-10T01:32:55.663Z,102472.31
2019-01-10T01:35:24.491Z,102469.03
2019-01-10T01:37:53.354Z,102477.59
2019-01-10T01:40:22.970Z,102475.59
2019-01-10T01:42:51.782Z,102481.95
2019-01-10T01:45:22.328Z,102487.95
2019-01-10T01:47:51.120Z,102490.10
2019-01-10T01:50:22.250Z,102492.84
2019-01-10T01:52:53.413Z,102499.22
2019-01-10T01:55:20.119Z,102496.31
2019-01-10T01:57:48.884Z,102504.53
2019-01-10T02:00:20.599Z,102503.07
2019-01-10T02:02:49.394Z,102510.02
2019-01-10T02:05:18.168Z,102516.05
2019-01-10T02:07:47.292Z,102513.09
2019-01-10T02:10:20.100Z,102514.22
2019-01-10T02:12:48.891Z,102515.14
2019-01-10T02:15:17.660Z,102517.30
2019-01-10T02:17:49.183Z,102523.53
2019-01-10T02:20:15.879Z,102528.64
2019-01-10T02:22:44.679Z,102521.34
2019-01-10T02:25:13.694Z,102523.35
2019-01-10T02:27:42.471Z,102524.09
2019-01-10T02:30:14.126Z,102531.37
2019-01-10T02:32:42.942Z,102529.02
2019-01-10T02:35:11.736Z,102533.94
2019-01-10T02:37:40.518Z,102524.48
2019-01-10T02:40:09.314Z,102530.86
2019-01-10T02:42:38.101Z,102538.69
2019-01-10T02:45:07.527Z,102530.30
2019-01-10T02:47:36.846Z,102536.68
2019-01-10T02:50:06.936Z,102539.95
2019-01-10T02:52:35.907Z,102544.34
2019-01-10T02:55:05.527Z,102545.97
2019-01-10T02:57:34.982Z,102541.78
2019-01-10T03:00:04.576Z,102539.03
2019-01-10T03:02:33.382Z,102542.33
2019-01-10T03:05:02.254Z,102535.17
2019-01-10T03:07:31.422Z,102539.00
2019-01-10T03:10:00.200Z,102539.75
2019-01-10T03:12:29.790Z,102535.92
2019-01-10T03:14:58.576Z,102534.08
2019-01-10T03:17:27.344Z,102535.36
2019-01-10T03:19:56.127Z,102533.52
2019-01-10T03:22:24.948Z,102541.74
2019-01-10T03:24:53.763Z,102540.65
2019-01-10T03:27:22.563Z,102539.91
2019-01-10T03:29:51.351Z,102531.36
2019-01-10T03:32:20.195Z,102527.70
2019-01-10T03:34:49.112Z,102527.14
2019-01-10T03:37:17.970Z,102526.61
2019-01-10T03:39:46.740Z,102529.69
2019-01-10T03:42:19.641Z,102528.41
2019-01-10T03:44:48.446Z,102531.53
2019-01-10T03:47:17.286Z,102523.69
2019-01-10T03:49:46.709Z,102529.19
2019-01-10T03:52:15.500Z,102526.80
2019-01-10T03:54:45.662Z,102529.00
2019-01-10T03:57:14.476Z,102531.02
2019-01-10T03:59:43.376Z,102532.28
2019-01-10T04:02:12.206Z,102545.26
2019-01-10T04:04:41.090Z,102540.70
2019-01-10T04:07:09.878Z,102553.81
2019-01-10T04:09:39.445Z,102547.61
2019-01-10T04:12:08.220Z,102541.78
2019-01-10T04:14:37.059Z,102540.51
2019-01-10T04:17:05.894Z,102541.83
2019-01-10T04:19:34.739Z,102547.98
2019-01-10T04:22:04.212Z,102546.70
2019-01-10T04:24:33.049Z,102541.99
2019-01-10T04:27:01.855Z,102541.99
2019-01-10T04:29:30.636Z,102535.05
2019-01-10T04:31:59.911Z,102545.05
2019-01-10T04:34:30.433Z,102548.36
2019-01-10T04:36:59.929Z,102540.28
2019-01-10T04:39:29.771Z,102539.19
2019-01-10T04:41:58.544Z,102540.65
2019-01-10T04:44:27.346Z,102539.52
2019-01-10T04:46:56.409Z,102542.83
2019-01-10T04:49:25.316Z,102537.87
2019-01-10T04:51:54.996Z,102535.31
2019-01-10T04:54:24.425Z,102529.65
2019-01-10T04:56:53.195Z,102536.59
2019-01-10T04:59:22.811Z,102541.70
2019-01-10T05:01:52.844Z,102538.58
2019-01-10T05:04:21.653Z,102536.23
2019-01-10T05:06:51.139Z,102542.05
2019-01-10T05:09:20.343Z,102542.41
2019-01-10T05:11:49.191Z,102544.79
2019-01-10T05:14:18.005Z,102544.05
2019-01-10T05:16:46.819Z,102545.48
2019-01-10T05:19:15.610Z,102544.53
2019-01-10T05:21:45.173Z,102552.94
2019-01-10T05:24:14.063Z,102546.91
2019-01-10T05:26:42.903Z,102544.86
2019-01-10T05:29:11.796Z,102543.98
2019-01-10T05:31:41.011Z,102544.69
2019-01-10T05:34:11.211Z,102557.45
2019-01-10T05:36:40.032Z,102558.73
2019-01-10T05:39:10.388Z,102550.16
2019-01-10T05:41:40.209Z,102551.25
2019-01-10T05:44:09.004Z,102555.99
2019-01-10T05:46:37.896Z,102555.48
2019-01-10T05:49:06.757Z,102557.30
2019-01-10T05:51:35.678Z,102570.62
2019-01-10T05:54:04.555Z,102564.59
2019-01-10T05:56:34.489Z,102562.61
2019-01-10T05:59:03.337Z,102566.80
2019-01-10T06:01:32.141Z,102576.82
2019-01-10T06:04:00.976Z,102581.92
2019-01-10T06:06:30.508Z,102580.30
2019-01-10T06:08:59.450Z,102581.06
2019-01-10T06:11:28.355Z,102580.15
2019-01-10T06:13:57.277Z,102588.89
2019-01-10T06:16:27.148Z,102595.98
2019-01-10T06:18:56.003Z,102588.54
2019-01-10T06:21:24.786Z,102583.23
2019-01-10T06:23:53.691Z,102593.83
2019-01-10T06:26:23.206Z,102588.89
2019-01-10T06:28:52.873Z,102586.91
2019-01-10T06:31:22.729Z,102581.98
2019-01-10T06:33:51.679Z,102580.55
2019-01-10T06:36:21.058Z,102585.33
2019-01-10T06:38:50.819Z,102582.92
2019-01-10T06:41:19.698Z,102583.70
2019-01-10T06:43:49.496Z,102592.27
2019-01-10T06:46:18.386Z,102595.59
2019-01-10T06:48:47.192Z,102603.06
2019-01-10T06:51:17.250Z,102608.38
2019-01-10T06:53:47.788Z,102602.88
2019-01-10T06:56:18.344Z,102606.00
2019-01-10T06:58:47.124Z,102622.59
2019-01-10T07:01:16.551Z,102612.56
2019-01-10T07:03:45.369Z,102612.21
2019-01-10T07:06:14.209Z,102618.20
2019-01-10T07:08:44.360Z,102614.02
2019-01-10T07:11:13.148Z,102625.15
2019-01-10T07:13:42.083Z,102625.00
2019-01-10T07:16:12.142Z,102621.70
2019-01-10T07:18:40.923Z,102622.83
2019-01-10T07:21:11.443Z,102631.59
2019-01-10T07:23:45.674Z,102635.98
2019-01-10T07:26:15.398Z,102625.03
2019-01-10T07:28:44.571Z,102629.22
2019-01-10T07:31:18.809Z,102625.20
2019-01-10T07:33:48.587Z,102629.58
2019-01-10T07:36:17.353Z,102629.39
2019-01-10T07:38:46.259Z,102624.48
2019-01-10T07:41:15.040Z,102628.34
2019-01-10T07:43:43.935Z,102629.08
2019-01-10T07:46:12.702Z,102637.13
2019-01-10T07:48:41.587Z,102640.98
2019-01-10T07:51:10.913Z,102636.08
2019-01-10T07:53:40.240Z,102648.88
2019-01-10T07:56:09.661Z,102638.67
2019-01-10T07:58:38.767Z,102644.16
2019-01-10T08:01:07.568Z,102645.82
2019-01-10T08:03:36.421Z,102655.14
2019-01-10T08:06:05.558Z,102658.08
2019-01-10T08:08:35.375Z,102655.38
2019-01-10T08:11:04.159Z,102669.97
2019-01-10T08:13:33.085Z,102669.62
2019-01-10T08:16:01.928Z,102673.83
2019-01-10T08:18:30.711Z,102665.09
2019-01-10T08:20:59.615Z,102669.66
2019-01-10T08:23:29.085Z,102668.76
2019-01-10T08:25:57.931Z,102661.48
2019-01-10T08:28:26.856Z,102673.00
2019-01-10T08:30:55.628Z,102669.19
2019-01-10T08:33:24.416Z,102673.76
2019-01-10T08:35:53.294Z,102672.65
2019-01-10T08:38:22.822Z,102676.89
2019-01-10T08:40:51.687Z,102685.83
2019-01-10T08:43:20.474Z,102689.51
2019-01-10T08:45:49.259Z,102686.05
2019-01-10T08:48:18.057Z,102691.17
2019-01-10T08:50:46.868Z,102686.27
2019-01-10T08:53:18.282Z,102686.80
2019-01-10T08:55:47.096Z,102693.56
2019-01-10T08:58:15.935Z,102688.66
2019-01-10T09:00:46.778Z,102693.42
2019-01-10T09:03:15.524Z,102696.91
2019-01-10T09:05:44.391Z,102699.63
2019-01-10T09:08:13.414Z,102700.20
2019-01-10T09:10:42.236Z,102689.79
2019-01-10T09:13:11.087Z,102708.63
2019-01-10T09:15:39.904Z,102702.61
2019-01-10T09:18:08.764Z,102700.98
2019-01-10T09:20:38.213Z,102700.47
2019-01-10T09:23:07.678Z,102707.23
2019-01-10T09:25:36.592Z,102707.25
2019-01-10T09:28:05.354Z,102710.89
2019-01-10T09:30:34.228Z,102713.11
2019-01-10T09:33:03.039Z,102710.20
2019-01-10T09:35:32.031Z,102711.13
2019-01-10T09:38:00.856Z,102706.91
2019-01-10T09:40:29.745Z,102711.67
2019-01-10T09:42:58.550Z,102715.38
2019-01-10T09:45:27.438Z,102715.91
2019-01-10T09:47:56.284Z,102712.08
2019-01-10T09:50:25.090Z,102710.27
2019-01-10T09:52:54.711Z,102709.52
2019-01-10T09:55:23.570Z,102716.12
2019-01-10T09:57:52.407Z,102709.89
2019-01-10T10:00:23.603Z,102716.50
2019-01-10T10:02:52.422Z,102712.47
2019-01-10T10:05:21.959Z,102709.91
2019-01-10T10:07:50.760Z,102711.39
2019-01-10T10:10:21.739Z,102708.47
2019-01-10T10:12:50.618Z,102710.67
2019-01-10T10:15:19.469Z,102715.59
2019-01-10T10:17:48.327Z,102722.72
2019-01-10T10:20:19.925Z,102722.56
2019-01-10T10:22:48.717Z,102723.48
2019-01-10T10:25:17.495Z,102724.77
2019-01-10T10:27:46.289Z,102718.89
2019-01-10T10:30:19.045Z,102715.80
2019-01-10T10:32:47.853Z,102705.16
2019-01-10T10:35:16.675Z,102709.39
2019-01-10T10:37:45.503Z,102702.06
2019-01-10T10:40:16.476Z,102700.02
2019-01-10T10:42:46.501Z,102702.41
2019-01-10T10:45:16.652Z,102698.72
2019-01-10T10:47:45.477Z,102703.47
2019-01-10T10:50:18.326Z,102708.42
2019-01-10T10:52:47.134Z,102712.42
2019-01-10T10:55:15.998Z,102719.03
2019-01-10T10:57:44.803Z,102710.97
2019-01-10T11:00:16.988Z,102710.39
2019-01-10T11:02:46.483Z,102706.34
2019-01-10T11:05:15.324Z,102703.05
2019-01-10T11:07:44.126Z,102695.54
2019-01-10T11:10:15.607Z,102690.92
2019-01-10T11:12:44.443Z,102698.03
2019-01-10T11:15:19.910Z,102694.02
2019-01-10T11:17:49.759Z,102695.45
2019-01-10T11:20:20.346Z,102698.41
2019-01-10T11:22:49.270Z,102694.14
2019-01-10T11:25:21.556Z,102697.27
2019-01-10T11:27:50.384Z,102692.72
2019-01-10T11:30:20.584Z,102694.35
2019-01-10T11:32:49.434Z,102690.14
2019-01-10T11:35:18.301Z,102699.48
2019-01-10T11:37:47.847Z,102697.09
2019-01-10T11:40:18.323Z,102681.68
2019-01-10T11:42:47.151Z,102689.16
2019-01-10T11:45:18.528Z,102686.80
2019-01-10T11:47:47.313Z,102683.13
2019-01-10T11:50:16.139Z,102670.63
2019-01-10T11:52:44.943Z,102670.08
2019-01-10T11:55:15.183Z,102673.72
2019-01-10T11:57:44.409Z,102677.17
2019-01-10T12:00:19.384Z,102669.97
2019-01-10T12:02:48.242Z,102665.96
2019-01-10T12:05:17.592Z,102663.63
2019-01-10T12:07:46.713Z,102666.36
2019-01-10T12:10:15.502Z,102668.57
2019-01-10T12:12:44.293Z,102665.64
2019-01-10T12:15:14.373Z,102665.05
2019-01-10T12:17:43.156Z,102651.43
2019-01-10T12:20:12.899Z,102654.00
2019-01-10T12:22:41.701Z,102650.48
2019-01-10T12:25:11.819Z,102649.76
2019-01-10T12:27:40.592Z,102643.47
2019-01-10T12:30:12.722Z,102647.32
2019-01-10T12:32:41.547Z,102639.80
2019-01-10T12:35:10.419Z,102641.43
2019-01-10T12:37:39.219Z,102641.22
2019-01-10T12:40:10.109Z,102635.71
2019-01-10T12:42:38.912Z,102633.85
2019-01-10T12:45:09.138Z,102632.00
2019-01-10T12:47:37.930Z,102633.25
2019-01-10T12:50:12.443Z,102636.74
2019-01-10T12:52:41.263Z,102635.27
2019-01-10T12:55:10.050Z,102633.25
2019-01-10T12:57:38.988Z,102631.78
2019-01-10T13:00:10.372Z,102627.92
2019-01-10T13:02:39.154Z,102631.08
2019-01-10T13:05:07.955Z,102628.88
2019-01-10T13:07:36.813Z,102640.98
2019-01-10T13:10:08.061Z,102644.47
2019-01-10T13:12:37.284Z,102637.28
2019-01-10T13:15:08.189Z,102636.16
2019-01-10T13:17:37.756Z,102632.25
2019-01-10T13:20:07.112Z,102631.64
2019-01-10T13:22:36.034Z,102632.16
2019-01-10T13:25:05.698Z,102637.97
2019-01-10T13:27:34.555Z,102638.89
2019-01-10T13:30:03.368Z,102636.28
2019-01-10T13:32:32.235Z,102638.80
2019-01-10T13:35:01.071Z,102632.11
2019-01-10T13:37:29.912Z,102633.33
2019-01-10T13:39:58.704Z,102624.84
2019-01-10T13:42:28.790Z,102625.73
2019-01-10T13:44:57.681Z,102619.05
2019-01-10T13:47:26.515Z,102625.84
2019-01-10T13:49:55.427Z,102627.86
2019-01-10T13:52:24.988Z,102628.70
2019-01-10T13:54:53.762Z,102623.15
2019-01-10T13:57:22.633Z,102624.80
2019-01-10T13:59:52.958Z,102625.36
2019-01-10T14:02:24.425Z,102629.80
2019-01-10T14:04:53.199Z,102624.44
2019-01-10T14:07:22.107Z,102627.23
2019-01-10T14:09:50.976Z,102629.58
2019-01-10T14:12:19.770Z,102633.98
2019-01-10T14:14:48.694Z,102630.31
2019-01-10T14:17:17.471Z,102631.38
2019-01-10T14:19:46.660Z,102635.02
2019-01-10T14:22:15.536Z,102635.78
2019-01-10T14:24:44.328Z,102634.27
2019-01-10T14:27:14.214Z,102630.41
2019-01-10T14:29:42.992Z,102637.03
2019-01-10T14:32:11.751Z,102631.34
2019-01-10T14:34:40.623Z,102635.41
2019-01-10T14:37:09.459Z,102635.64
2019-01-10T14:39:38.282Z,102633.29
2019-01-10T14:42:07.112Z,102625.36
2019-01-10T14:44:35.919Z,102628.88
2019-01-10T14:47:07.716Z,102636.64
2019-01-10T14:49:33.630Z,102639.43
2019-01-10T14:52:02.404Z,102641.48
2019-01-10T14:54:31.318Z,102638.77
2019-01-10T14:57:00.078Z,102642.84
2019-01-10T14:59:28.855Z,102632.59
2019-01-10T15:01:57.651Z,102627.67
2019-01-10T15:04:26.455Z,102633.58
2019-01-10T15:06:55.322Z,102625.91
2019-01-10T15:09:24.187Z,102622.23
2019-01-10T15:11:53.112Z,102627.99
2019-01-10T15:14:22.737Z,102622.73
2019-01-10T15:16:53.035Z,102620.20
2019-01-10T15:19:20.457Z,102617.81
2019-01-10T15:21:49.272Z,102620.59
2019-01-10T15:24:18.111Z,102611.81
2019-01-10T15:26:47.001Z,102615.91
2019-01-10T15:29:15.787Z,102617.63
2019-01-10T15:31:44.570Z,102625.97
2019-01-10T15:34:15.037Z,102626.36
2019-01-10T15:36:45.109Z,102636.84
2019-01-10T15:39:13.963Z,102637.21
2019-01-10T15:41:43.550Z,102642.16
2019-01-10T15:44:12.388Z,102635.21
2019-01-10T15:46:42.170Z,102627.93
2019-01-10T15:49:11.004Z,102624.97
2019-01-10T15:51:39.790Z,102622.27
2019-01-10T15:54:08.641Z,102627.22
2019-01-10T15:56:37.452Z,102626.14
2019-01-10T15:59:06.215Z,102631.28
2019-01-10T16:01:35.323Z,102630.34
2019-01-10T16:04:07.408Z,102628.34
2019-01-10T16:06:34.092Z,102630.73
2019-01-10T16:09:03.020Z,102630.57
2019-01-10T16:11:31.843Z,102634.59
2019-01-10T16:14:00.712Z,102632.95
2019-01-10T16:16:30.622Z,102640.09
2019-01-10T16:19:02.209Z,102640.86
2019-01-10T16:21:30.172Z,102637.02
2019-01-10T16:23:59.223Z,102642.17
2019-01-10T16:26:28.012Z,102635.20
2019-01-10T16:28:56.798Z,102644.37
2019-01-10T16:31:25.860Z,102648.59
2019-01-10T16:33:54.855Z,102654.23
2019-01-10T16:36:23.726Z,102647.45
2019-01-10T16:38:52.523Z,102650.23
2019-01-10T16:41:21.486Z,102649.67
2019-01-10T16:43:50.335Z,102655.02
2019-01-10T16:46:19.175Z,102653.91
2019-01-10T16:48:48.172Z,102649.16
2019-01-10T16:51:17.119Z,102655.06
2019-01-10T16:53:46.146Z,102655.42
2019-01-10T16:56:14.969Z,102655.23
2019-01-10T16:58:43.749Z,102649.95
2019-01-10T17:01:12.686Z,102653.43
2019-01-10T17:03:41.503Z,102649.58
2019-01-10T17:06:10.283Z,102647.92
2019-01-10T17:08:39.079Z,102651.05
2019-01-10T17:11:08.598Z,102647.95
2019-01-10T17:13:37.486Z,102642.47
2019-01-10T17:16:06.270Z,102641.75
2019-01-10T17:18:35.694Z,102641.19
2019-01-10T17:21:04.649Z,102642.47
2019-01-10T17:23:33.444Z,102635.70
2019-01-10T17:26:02.280Z,102628.70
2019-01-10T17:28:31.123Z,102629.09
2019-01-10T17:31:00.416Z,102628.69
2019-01-10T17:33:29.434Z,102625.23
2019-01-10T17:35:58.253Z,102625.97
2019-01-10T17:38:27.085Z,102624.52
2019-01-10T17:40:55.913Z,102632.23
2019-01-10T17:43:24.679Z,102635.16
2019-01-10T17:45:53.492Z,102633.52
2019-01-10T17:48:23.205Z,102642.12
2019-01-10T17:50:52.073Z,102637.91
2019-01-10T17:53:20.941Z,102633.15
2019-01-10T17:55:49.762Z,102645.61
2019-01-10T17:58:18.615Z,102645.61
2019-01-10T18:00:48.230Z,102647.26
2019-01-10T18:03:17.019Z,102645.42
2019-01-10T18:05:45.974Z,102639.56
2019-01-10T18:08:14.870Z,102639.56
2019-01-10T18:10:44.003Z,102635.16
2019-01-10T18:13:12.790Z,102638.85
2019-01-10T18:15:41.668Z,102640.86
2019-01-10T18:18:11.760Z,102643.43
2019-01-10T18:20:41.313Z,102639.02
2019-01-10T18:23:10.228Z,102647.48
2019-01-10T18:25:39.099Z,102637.03
2019-01-10T18:28:08.942Z,102644.73
2019-01-10T18:30:43.314Z,102639.59
2019-01-10T18:33:13.360Z,102642.37
2019-01-10T18:35:42.198Z,102649.14
2019-01-10T18:38:11.043Z,102647.31
2019-01-10T18:40:39.826Z,102647.69
2019-01-10T18:43:08.596Z,102646.25
2019-01-10T18:45:37.497Z,102646.80
2019-01-10T18:48:06.271Z,102647.16
2019-01-10T18:50:35.105Z,102644.77
2019-01-10T18:53:03.955Z,102652.83
2019-01-10T18:55:32.834Z,102653.02
2019-01-10T18:58:01.608Z,102646.97
2019-01-10T19:00:31.315Z,102649.53
2019-01-10T19:03:01.359Z,102644.61
2019-01-10T19:05:31.104Z,102639.12
2019-01-10T19:08:00.027Z,102641.28
2019-01-10T19:10:28.816Z,102641.28
2019-01-10T19:12:57.667Z,102634.89
2019-01-10T19:15:26.499Z,102636.37
2019-01-10T19:17:55.290Z,102636.56
2019-01-10T19:20:27.032Z,102633.81
2019-01-10T19:22:57.488Z,102634.37
2019-01-10T19:25:26.314Z,102638.94
2019-01-10T19:27:55.232Z,102630.89
2019-01-10T19:30:26.471Z,102635.47
2019-01-10T19:32:55.315Z,102636.20
2019-01-10T19:35:24.104Z,102629.63
2019-01-10T19:37:52.916Z,102632.36
2019-01-10T19:40:21.847Z,102636.41
2019-01-10T19:42:51.571Z,102629.44
2019-01-10T19:45:20.480Z,102628.00
2019-01-10T19:47:49.311Z,102627.79
2019-01-10T19:50:20.163Z,102622.86
2019-01-10T19:52:49.514Z,102624.52
2019-01-10T19:55:19.001Z,102616.45
2019-01-10T19:57:47.872Z,102612.41
2019-01-10T20:00:19.962Z,102617.39
2019-01-10T20:02:48.800Z,102614.42
2019-01-10T20:05:17.893Z,102613.54
2019-01-10T20:07:46.684Z,102608.41
2019-01-10T20:10:15.511Z,102607.86
2019-01-10T20:12:44.320Z,102605.29
2019-01-10T20:15:13.121Z,102604.18
2019-01-10T20:17:41.915Z,102606.74
2019-01-10T20:20:15.079Z,102607.50
2019-01-10T20:22:44.135Z,102608.58
2019-01-10T20:25:13.021Z,102607.13
2019-01-10T20:27:41.811Z,102608.93
2019-01-10T20:30:11.638Z,102608.20
2019-01-10T20:32:40.403Z,102608.77
2019-01-10T20:35:09.230Z,102606.72
2019-01-10T20:37:38.354Z,102604.16
2019-01-10T20:40:08.759Z,102604.70
2019-01-10T20:42:37.666Z,102605.83
2019-01-10T20:45:06.628Z,102597.22
2019-01-10T20:47:36.458Z,102595.58
2019-01-10T20:50:05.900Z,102597.95
2019-01-10T20:52:34.699Z,102606.37
2019-01-10T20:55:03.546Z,102604.38
2019-01-10T20:57:32.407Z,102597.96
2019-01-10T21:00:01.361Z,102599.05
2019-01-10T21:02:30.200Z,102594.69
2019-01-10T21:04:59.135Z,102598.33
2019-01-10T21:07:27.944Z,102590.46
2019-01-10T21:09:56.847Z,102593.91
2019-01-10T21:12:25.654Z,102590.98
2019-01-10T21:14:55.139Z,102586.98
2019-01-10T21:17:24.211Z,102586.78
2019-01-10T21:19:53.063Z,102584.95
2019-01-10T21:22:21.887Z,102582.38
2019-01-10T21:24:51.241Z,102581.10
2019-01-10T21:27:20.588Z,102581.86
2019-01-10T21:29:49.418Z,102576.73
2019-01-10T21:32:19.238Z,102578.73
2019-01-10T21:34:48.023Z,102574.33
2019-01-10T21:37:16.815Z,102573.62
2019-01-10T21:39:45.658Z,102577.67
2019-01-10T21:42:14.583Z,102573.27
2019-01-10T21:44:43.402Z,102571.80
2019-01-10T21:47:13.386Z,102566.30
2019-01-10T21:49:43.853Z,102565.73
2019-01-10T21:52:12.694Z,102562.28
2019-01-10T21:54:41.532Z,102556.95
2019-01-10T21:57:10.343Z,102564.09
2019-01-10T21:59:39.122Z,102564.84
2019-01-10T22:02:08.987Z,102562.27
2019-01-10T22:04:37.868Z,102567.00
2019-01-10T22:07:06.704Z,102564.44
2019-01-10T22:09:35.577Z,102564.84
2019-01-10T22:12:04.589Z,102556.22
2019-01-10T22:14:33.398Z,102558.02
2019-01-10T22:17:02.352Z,102554.73
2019-01-10T22:19:31.212Z,102549.24
2019-01-10T22:22:00.026Z,102554.73
2019-01-10T22:24:28.884Z,102558.42
2019-01-10T22:26:58.400Z,102545.77
2019-01-10T22:29:27.212Z,102551.82
2019-01-10T22:31:56.038Z,102553.66
2019-01-10T22:34:24.828Z,102550.17
2019-01-10T22:36:53.664Z,102546.67
2019-01-10T22:39:22.514Z,102548.52
2019-01-10T22:41:51.479Z,102544.66
2019-01-10T22:44:20.378Z,102540.45
2019-01-10T22:46:49.183Z,102539.54
2019-01-10T22:49:17.996Z,102534.20
2019-01-10T22:51:46.799Z,102535.48
2019-01-10T22:54:15.629Z,102527.06
2019-01-10T22:56:44.480Z,102522.85
2019-01-10T22:59:13.279Z,102523.22
2019-01-10T23:01:49.384Z,102518.24
2019-01-10T23:04:27.404Z,102514.40
2019-01-10T23:06:56.240Z,102513.67
2019-01-10T23:09:25.092Z,102508.75
2019-01-10T23:11:53.955Z,102504.91
2019-01-10T23:14:23.378Z,102508.19
2019-01-10T23:16:52.195Z,102503.80
2019-01-10T23:19:21.035Z,102506.02
2019-01-10T23:21:50.657Z,102502.02
2019-01-10T23:24:26.545Z,102499.81
2019-01-10T23:26:52.209Z,102502.89
2019-01-10T23:29:21.078Z,102494.11
2019-01-10T23:31:50.833Z,102488.41
2019-01-10T23:34:19.658Z,102491.73
2019-01-10T23:36:51.594Z,102487.49
2019-01-10T23:39:21.369Z,102486.97
2019-01-10T23:41:51.107Z,102481.84
2019-01-10T23:44:19.906Z,102482.20
2019-01-10T23:46:48.703Z,102482.20
2019-01-10T23:49:17.505Z,102478.36
2019-01-10T23:51:46.351Z,102478.17
2019-01-10T23:54:15.159Z,102474.52
2019-01-10T23:56:44.059Z,102471.05
2019-01-10T23:59:14.125Z,102467.00
